Time;durP1;ratioP1;P1;durP2;ratioP2;P2;SDS_P1;SDS_P2;PMS_P1;PMS_P2;Temp;Humidity;BMP_temperature;BMP_pressure;BME280_temperature;BME280_humidity;BME280_pressure;Samples;Min_cycle;Max_cycle;Signal;HPM_P1;HPM_P2
2022/04/03 00:00:58;;;;;;;3.50;2.10;;;;;;;0.36;50.67;101174.11;1817406;78;21054;-89
2022/04/03 00:03:25;;;;;;;3.75;2.05;;;;;;;0.33;50.53;101162.22;1782447;78;21033;-89
2022/04/03 00:05:52;;;;;;;3.65;2.08;;;;;;;0.31;50.33;101168.98;1777310;79;21069;-90
2022/04/03 00:08:19;;;;;;;3.25;1.90;;;;;;;0.30;50.32;101165.91;1763647;79;22044;-79
2022/04/03 00:10:46;;;;;;;4.35;2.02;;;;;;;0.33;50.30;101164.81;1794003;79;21073;-79
2022/04/03 00:13:13;;;;;;;2.55;1.90;;;;;;;0.41;50.23;101163.17;1778067;79;21133;-79
2022/04/03 00:15:42;;;;;;;3.87;2.40;;;;;;;0.50;50.23;101162.55;1791843;79;21094;-79
2022/04/03 00:18:09;;;;;;;3.75;2.20;;;;;;;0.57;50.21;101150.55;1796368;79;21025;-90
2022/04/03 00:20:40;;;;;;;3.60;1.80;;;;;;;0.65;50.20;101153.68;1774802;79;21356;-90
2022/04/03 00:23:07;;;;;;;3.20;2.10;;;;;;;0.69;50.16;101152.70;1781581;79;21087;-80
2022/04/03 00:25:33;;;;;;;8.30;2.40;;;;;;;0.70;50.11;101156.21;1764569;79;21772;-77
2022/04/03 00:28:00;;;;;;;4.95;1.67;;;;;;;0.72;49.99;101150.73;1763542;79;21084;-88
2022/04/03 00:30:27;;;;;;;8.55;2.40;;;;;;;0.76;49.87;101152.34;1784678;79;21081;-88
2022/04/03 00:32:54;;;;;;;6.20;1.98;;;;;;;0.84;49.80;101158.47;1787296;79;21757;-78
2022/04/03 00:35:21;;;;;;;6.03;2.08;;;;;;;0.87;49.73;101145.33;1777158;79;21093;-89
2022/04/03 00:37:48;;;;;;;4.75;1.92;;;;;;;0.89;49.71;101143.75;1815278;77;21654;-89
2022/04/03 00:40:15;;;;;;;3.92;2.30;;;;;;;0.89;49.57;101151.52;1819715;77;21575;-89
2022/04/03 00:42:46;;;;;;;3.80;2.30;;;;;;;0.90;49.44;101153.70;1820640;77;21010;-89
2022/04/03 00:45:13;;;;;;;4.20;1.92;;;;;;;0.88;49.30;101147.15;1820589;77;21747;-89
2022/04/03 00:47:40;;;;;;;4.50;2.02;;;;;;;0.87;49.18;101153.11;1826087;77;21137;-88
2022/04/03 00:50:08;;;;;;;3.90;1.80;;;;;;;0.86;49.07;101137.04;1824529;77;21034;-89
2022/04/03 00:52:34;;;;;;;2.65;1.92;;;;;;;0.86;49.02;101145.22;1851057;77;21029;-89
2022/04/03 00:55:01;;;;;;;2.55;1.90;;;;;;;0.86;48.95;101133.56;1842423;77;21043;-89
2022/04/03 00:57:28;;;;;;;2.22;2.00;;;;;;;0.86;48.97;101137.04;1836663;77;21753;-78
2022/04/03 00:59:55;;;;;;;3.00;1.92;;;;;;;0.87;48.92;101137.97;1818687;77;21010;-80
2022/04/03 01:02:22;;;;;;;3.37;2.08;;;;;;;0.87;48.92;101134.97;1819200;77;21104;-77
2022/04/03 01:04:49;;;;;;;4.03;1.82;;;;;;;0.88;48.94;101134.56;1809918;77;21025;-78
2022/04/03 01:07:19;;;;;;;2.05;1.70;;;;;;;0.84;48.93;101132.15;1798179;77;21060;-78
2022/04/03 01:09:44;;;;;;;2.55;2.22;;;;;;;0.85;48.77;101125.30;1794573;78;21768;-78
2022/04/03 01:12:11;;;;;;;5.50;2.00;;;;;;;0.88;48.81;101135.86;1795014;77;21065;-78
2022/04/03 01:14:42;;;;;;;5.47;1.92;;;;;;;0.91;48.73;101127.91;1795024;77;21068;-78
2022/04/03 01:17:13;;;;;;;2.75;2.08;;;;;;;0.94;48.63;101129.42;1798961;77;21057;-90
2022/04/03 01:19:41;;;;;;;2.83;2.20;;;;;;;0.95;48.53;101132.91;1765365;79;21525;-89
2022/04/03 01:22:07;;;;;;;2.70;1.85;;;;;;;0.92;48.41;101130.09;1744427;79;21755;-90
2022/04/03 01:24:34;;;;;;;3.83;2.12;;;;;;;0.90;48.48;101130.01;1765287;79;21037;-76
2022/04/03 01:27:01;;;;;;;3.92;2.05;;;;;;;0.91;48.42;101140.86;1764455;79;21120;-76
2022/04/03 01:29:28;;;;;;;2.92;1.90;;;;;;;0.91;48.50;101135.67;1764257;79;21088;-79
2022/04/03 01:31:54;;;;;;;2.72;1.77;;;;;;;0.94;48.49;101130.72;1760424;79;21064;-78
2022/04/03 01:34:21;;;;;;;5.60;2.40;;;;;;;0.95;48.47;101131.20;1770192;80;21787;-87
2022/04/03 01:36:48;;;;;;;4.12;2.15;;;;;;;0.95;48.44;101132.50;1764466;80;21062;-88
2022/04/03 01:39:15;;;;;;;3.60;1.90;;;;;;;0.92;48.54;101136.20;1759832;80;21242;-89
2022/04/03 01:41:43;;;;;;;3.22;1.98;;;;;;;0.85;48.62;101130.48;1752029;79;21571;-89
2022/04/03 01:44:10;;;;;;;2.05;1.70;;;;;;;0.81;48.71;101134.92;1752716;80;21072;-89
2022/04/03 01:46:37;;;;;;;3.60;2.00;;;;;;;0.81;48.67;101133.25;1755273;80;21738;-88
2022/04/03 01:49:05;;;;;;;4.10;2.15;;;;;;;0.83;48.65;101130.37;1765523;80;21549;-89
2022/04/03 01:51:32;;;;;;;2.83;2.00;;;;;;;0.86;48.73;101134.45;1750956;80;21072;-88
2022/04/03 01:54:01;;;;;;;2.75;1.98;;;;;;;0.89;48.77;101131.19;1747032;80;21068;-77
2022/04/03 01:56:28;;;;;;;3.33;2.20;;;;;;;0.90;48.82;101131.67;1766160;80;21082;-78
2022/04/03 01:58:55;;;;;;;5.17;2.33;;;;;;;0.92;48.89;101131.38;1751983;80;21730;-77
2022/04/03 02:01:21;;;;;;;2.37;2.17;;;;;;;0.96;49.03;101136.91;1752942;80;21042;-89
2022/04/03 02:03:49;;;;;;;4.70;2.52;;;;;;;1.00;49.18;101137.12;1752952;80;21097;-88
2022/04/03 02:06:16;;;;;;;4.12;2.47;;;;;;;1.01;49.27;101141.09;1722774;81;21548;-89
2022/04/03 02:08:45;;;;;;;2.95;2.27;;;;;;;1.00;49.34;101134.13;1750147;79;21091;-78
2022/04/03 02:11:12;;;;;;;4.80;3.05;;;;;;;1.01;49.38;101135.91;1799407;78;23041;-78
2022/04/03 02:13:38;;;;;;;4.33;2.58;;;;;;;1.04;49.45;101130.95;1804554;77;21072;-79
2022/04/03 02:16:05;;;;;;;6.50;3.05;;;;;;;1.06;49.45;101137.14;1809110;77;21062;-79
2022/04/03 02:18:32;;;;;;;4.12;2.62;;;;;;;1.10;49.50;101126.59;1788815;79;21354;-78
2022/04/03 02:20:59;;;;;;;4.58;2.90;;;;;;;1.13;49.49;101127.70;1801590;79;21065;-78
2022/04/03 02:23:25;;;;;;;4.85;2.70;;;;;;;1.12;49.46;101132.78;1793086;79;21708;-78
2022/04/03 02:25:52;;;;;;;4.30;2.80;;;;;;;1.10;49.49;101140.84;1792525;78;21139;-79
2022/04/03 02:28:19;;;;;;;3.22;2.52;;;;;;;1.06;49.49;101133.25;1778796;79;21047;-79
2022/04/03 02:30:45;;;;;;;3.98;2.80;;;;;;;1.05;49.54;101135.73;1776798;80;21076;-78
2022/04/03 02:33:12;;;;;;;7.67;3.00;;;;;;;1.00;49.44;101138.02;1785644;80;21057;-78
2022/04/03 02:35:39;;;;;;;5.35;3.17;;;;;;;0.94;49.55;101135.91;1781754;80;21765;-89
2022/04/03 02:38:07;;;;;;;5.37;2.80;;;;;;;0.90;49.58;101136.48;1789647;79;21593;-90
2022/04/03 02:40:34;;;;;;;5.87;3.17;;;;;;;0.84;49.62;101139.03;1804921;79;21083;-77
2022/04/03 02:43:02;;;;;;;9.63;3.27;;;;;;;0.80;49.76;101134.03;1774573;80;21080;-78
2022/04/03 02:45:29;;;;;;;9.23;3.52;;;;;;;0.83;49.86;101139.84;1788249;80;21038;-88
2022/04/03 02:47:56;;;;;;;5.10;3.12;;;;;;;0.83;50.00;101138.55;1791388;79;21791;-87
2022/04/03 02:50:25;;;;;;;5.37;3.30;;;;;;;0.82;50.04;101138.03;1808822;79;21099;-78
2022/04/03 02:52:51;;;;;;;5.83;3.72;;;;;;;0.78;50.10;101129.14;1792679;78;21061;-77
2022/04/03 02:55:22;;;;;;;8.55;3.35;;;;;;;0.73;50.24;101131.79;1785579;79;21116;-89
2022/04/03 02:57:49;;;;;;;8.33;3.45;;;;;;;0.74;50.37;101136.20;1812380;79;21104;-89
2022/04/03 03:00:17;;;;;;;5.80;3.27;;;;;;;0.73;50.47;101127.53;1788334;79;22437;-89
2022/04/03 03:02:45;;;;;;;7.55;3.80;;;;;;;0.74;50.54;101130.61;1812180;79;21128;-89
2022/04/03 03:05:15;;;;;;;6.42;3.25;;;;;;;0.76;50.58;101124.25;1790708;78;21024;-89
2022/04/03 03:07:45;;;;;;;7.15;3.45;;;;;;;0.80;50.61;101129.25;1789668;78;21073;-89
2022/04/03 03:10:14;;;;;;;8.48;3.72;;;;;;;0.81;50.60;101131.03;1783594;78;21624;-90
2022/04/03 03:12:41;;;;;;;5.00;3.12;;;;;;;0.77;50.55;101134.72;1819751;78;21752;-90
2022/04/03 03:15:10;;;;;;;7.58;3.12;;;;;;;0.70;50.47;101136.38;1820026;78;21033;-89
2022/04/03 03:17:37;;;;;;;7.97;3.27;;;;;;;0.58;50.47;101140.30;1811635;78;21064;-88
2022/04/03 03:20:05;;;;;;;6.80;3.40;;;;;;;0.46;50.56;101138.11;1787612;78;21065;-89
2022/04/03 03:22:33;;;;;;;12.35;3.37;;;;;;;0.34;50.70;101135.55;1793888;77;21389;-89
2022/04/03 03:25:01;;;;;;;6.87;3.25;;;;;;;0.25;50.81;101136.19;1803458;78;21743;-88
2022/04/03 03:27:27;;;;;;;7.25;2.65;;;;;;;0.16;50.94;101138.99;1809482;78;21732;-88
2022/04/03 03:29:54;;;;;;;4.08;3.02;;;;;;;0.08;51.05;101131.48;1784510;78;21641;-89
2022/04/03 03:32:23;;;;;;;5.12;3.25;;;;;;;0.00;51.19;101134.80;1787509;78;21036;-78
2022/04/03 03:34:51;;;;;;;5.83;3.42;;;;;;;-0.03;51.36;101134.16;1786389;78;21544;-76
2022/04/03 03:37:18;;;;;;;7.70;3.58;;;;;;;-0.02;51.47;101130.80;1808445;77;21746;-88
2022/04/03 03:39:45;;;;;;;5.45;3.37;;;;;;;0.01;51.57;101129.22;1790036;78;21033;-87
2022/04/03 03:42:12;;;;;;;5.22;3.37;;;;;;;0.03;51.56;101137.59;1800757;78;21033;-89
2022/04/03 03:44:38;;;;;;;7.37;3.70;;;;;;;0.00;51.59;101130.92;1787484;78;21075;-89
2022/04/03 03:47:07;;;;;;;5.85;3.50;;;;;;;-0.02;51.67;101131.17;1796984;78;21092;-90
2022/04/03 03:49:34;;;;;;;7.28;3.27;;;;;;;-0.05;51.71;101134.84;1772939;80;21837;-90
2022/04/03 03:52:01;;;;;;;6.87;3.20;;;;;;;-0.07;51.80;101133.44;1787603;78;21052;-89
2022/04/03 03:54:28;;;;;;;5.95;3.15;;;;;;;-0.07;51.93;101132.14;1758896;80;21604;-89
2022/04/03 03:56:55;;;;;;;6.17;2.98;;;;;;;-0.04;51.98;101134.05;1792146;78;21070;-89
2022/04/03 03:59:22;;;;;;;4.67;3.08;;;;;;;-0.05;52.01;101131.86;1819283;78;21149;-89
2022/04/03 04:01:49;;;;;;;6.67;3.47;;;;;;;-0.06;52.01;101133.03;1795276;78;22361;-89
2022/04/03 04:04:16;;;;;;;5.70;3.12;;;;;;;-0.08;52.08;101130.73;1798583;78;21064;-78
2022/04/03 04:06:43;;;;;;;5.03;2.98;;;;;;;-0.11;52.13;101131.78;1819012;78;21076;-77
2022/04/03 04:09:10;;;;;;;7.33;3.50;;;;;;;-0.15;52.21;101132.35;1788568;78;21538;-83
2022/04/03 04:11:36;;;;;;;6.67;3.35;;;;;;;-0.18;52.32;101131.74;1787039;78;21103;-78
2022/04/03 04:14:04;;;;;;;9.20;3.60;;;;;;;-0.17;52.45;101135.22;1790046;78;21974;-90
2022/04/03 04:16:31;;;;;;;8.33;3.45;;;;;;;-0.18;52.48;101131.74;1820121;78;21299;-89
2022/04/03 04:18:57;;;;;;;9.45;4.00;;;;;;;-0.19;52.58;101133.81;1820207;78;21127;-90
2022/04/03 04:21:24;;;;;;;5.92;3.55;;;;;;;-0.17;52.68;101136.11;1819971;78;21132;-87
2022/04/03 04:23:51;;;;;;;9.13;5.33;;;;;;;-0.16;52.76;101135.74;1796112;78;21080;-79
2022/04/03 04:26:18;;;;;;;8.53;4.58;;;;;;;-0.21;52.77;101129.84;1786009;78;21682;-78
2022/04/03 04:28:48;;;;;;;9.55;5.20;;;;;;;-0.25;52.88;101134.66;1786096;79;21562;-77
2022/04/03 04:31:14;;;;;;;29.42;17.73;;;;;;;-0.29;53.02;101131.34;1802093;78;21105;-90
2022/04/03 04:33:47;;;;;;;22.87;15.60;;;;;;;-0.32;53.13;101140.16;1804267;78;21217;-90
2022/04/03 04:36:15;;;;;;;9.73;7.45;;;;;;;-0.38;53.23;101132.84;1820746;78;21127;-89
2022/04/03 04:38:41;;;;;;;6.53;4.55;;;;;;;-0.42;53.40;101136.88;1802894;78;21773;-89
2022/04/03 04:41:08;;;;;;;7.40;3.95;;;;;;;-0.43;53.55;101140.27;1788022;78;21405;-88
2022/04/03 04:43:35;;;;;;;8.90;4.10;;;;;;;-0.43;53.74;101135.50;1788400;80;21573;-87
2022/04/03 04:46:02;;;;;;;9.65;4.25;;;;;;;-0.35;53.90;101141.23;1800371;78;21593;-89
2022/04/03 04:48:29;;;;;;;8.53;4.30;;;;;;;-0.25;54.01;101146.30;1797764;78;21459;-88
2022/04/03 04:50:56;;;;;;;9.40;5.45;;;;;;;-0.02;54.08;101139.86;1807293;78;21304;-88
2022/04/03 04:53:23;;;;;;;8.40;4.28;;;;;;;1.04;54.92;101137.84;1793902;78;21055;-77
2022/04/03 04:55:50;;;;;;;6.40;4.22;;;;;;;2.14;54.27;101130.97;1808122;78;21072;-88
2022/04/03 04:58:19;;;;;;;8.70;4.78;;;;;;;3.26;53.49;101133.16;1803547;77;21664;-87
2022/04/03 05:00:48;;;;;;;9.33;4.70;;;;;;;3.87;52.48;101134.61;1813405;78;21052;-88
2022/04/03 05:03:15;;;;;;;7.53;4.30;;;;;;;4.83;51.92;101132.13;1815370;78;21740;-88
2022/04/03 05:05:42;;;;;;;10.23;4.62;;;;;;;5.38;50.92;101126.33;1803794;78;22122;-88
2022/04/03 05:08:09;;;;;;;7.08;4.17;;;;;;;5.18;49.23;101123.58;1799185;78;21013;-88
2022/04/03 05:10:35;;;;;;;9.53;4.12;;;;;;;4.55;48.92;101134.53;1797673;78;21010;-86
2022/04/03 05:13:02;;;;;;;8.20;4.70;;;;;;;4.03;48.85;101134.19;1798478;78;21096;-78
2022/04/03 05:15:30;;;;;;;10.48;4.65;;;;;;;3.43;48.89;101126.38;1802861;77;21644;-78
2022/04/03 05:17:58;;;;;;;10.82;4.65;;;;;;;3.07;49.17;101141.97;1806565;78;21613;-86
2022/04/03 05:20:24;;;;;;;11.20;4.87;;;;;;;2.68;49.43;101142.58;1782270;78;21067;-88
2022/04/03 05:22:51;;;;;;;5.90;4.03;;;;;;;2.37;49.75;101151.04;1807835;78;21032;-88
2022/04/03 05:25:18;;;;;;;9.90;4.80;;;;;;;2.12;49.98;101151.13;1814434;78;21100;-89
2022/04/03 05:27:45;;;;;;;8.85;5.33;;;;;;;1.86;50.22;101146.44;1801641;78;21741;-78
2022/04/03 05:30:13;;;;;;;10.18;4.75;;;;;;;1.65;50.51;101155.00;1762487;79;21081;-78
2022/04/03 05:32:40;;;;;;;8.20;4.60;;;;;;;1.52;50.79;101154.94;1778392;79;21156;-77
2022/04/03 05:35:09;;;;;;;8.08;5.15;;;;;;;1.49;51.12;101158.23;1789506;78;21026;-90
2022/04/03 05:37:45;;;;;;;10.08;5.67;;;;;;;1.51;51.28;101159.64;1789805;79;21045;-89
2022/04/03 05:40:13;;;;;;;9.90;6.30;;;;;;;1.60;51.50;101158.97;1784156;78;21780;-89
2022/04/03 05:42:40;;;;;;;14.30;6.87;;;;;;;1.72;51.58;101160.19;1788829;78;21581;-77
2022/04/03 05:45:09;;;;;;;8.83;5.12;;;;;;;1.84;51.61;101161.39;1804494;78;20988;-77
2022/04/03 05:47:36;;;;;;;9.60;4.97;;;;;;;1.93;51.57;101162.00;1803118;78;21042;-77
2022/04/03 05:50:03;;;;;;;8.08;3.95;;;;;;;1.98;51.45;101167.11;1796144;78;21078;-91
2022/04/03 05:52:48;;;;;;;8.35;4.55;;;;;;;1.98;51.39;101166.22;1775961;80;21770;-90
2022/04/03 05:55:17;;;;;;;7.78;4.17;;;;;;;1.96;51.47;101163.52;1781428;80;21074;-78
2022/04/03 05:57:45;;;;;;;7.58;4.17;;;;;;;2.03;51.60;101171.33;1776149;78;21078;-87
2022/04/03 06:00:12;;;;;;;14.40;5.80;;;;;;;2.07;51.58;101169.02;1804654;78;21500;-88
2022/04/03 06:02:53;;;;;;;8.08;4.92;;;;;;;2.13;51.64;101173.72;1779965;78;21065;-88
2022/04/03 06:05:22;;;;;;;10.00;4.12;;;;;;;2.22;51.69;101174.73;1784220;78;21812;-85
2022/04/03 06:07:49;;;;;;;12.55;5.47;;;;;;;2.32;51.65;101181.00;1743997;81;21088;-87
2022/04/03 06:10:18;;;;;;;9.03;4.80;;;;;;;2.42;51.62;101181.20;1742294;81;21533;-88
2022/04/03 06:13:04;;;;;;;9.68;5.50;;;;;;;2.47;51.53;101176.80;1797902;79;21049;-87
2022/04/03 06:15:37;;;;;;;8.68;4.97;;;;;;;2.57;51.45;101175.67;1782634;79;21062;-88
2022/04/03 06:18:08;;;;;;;8.83;5.10;;;;;;;2.63;51.36;101173.91;1803043;79;21839;-87
2022/04/03 06:20:35;;;;;;;8.70;4.90;;;;;;;2.62;51.54;101159.98;1773407;79;21586;-86
2022/04/03 06:23:03;;;;;;;8.50;4.62;;;;;;;2.84;51.42;101175.66;1760066;81;21633;-86
2022/04/03 06:25:30;;;;;;;9.83;4.83;;;;;;;3.08;51.40;101173.69;1791103;79;21182;-77
2022/04/03 06:27:56;;;;;;;7.22;4.25;;;;;;;3.31;51.22;101172.48;1747925;81;21030;-86
2022/04/03 06:30:23;;;;;;;8.30;4.22;;;;;;;3.52;50.93;101175.89;1795110;79;21966;-86
2022/04/03 06:32:50;;;;;;;8.20;4.28;;;;;;;3.70;50.69;101170.08;1740995;81;21729;-87
2022/04/03 06:35:17;;;;;;;11.40;4.42;;;;;;;3.83;50.59;101168.18;1775474;80;21545;-88
2022/04/03 06:37:43;;;;;;;7.25;4.17;;;;;;;3.90;50.40;101172.95;1749858;80;21133;-88
2022/04/03 06:40:10;;;;;;;9.05;4.72;;;;;;;3.88;50.13;101177.17;1806313;77;21601;-78
2022/04/03 06:42:37;;;;;;;7.47;4.47;;;;;;;3.85;50.00;101178.31;1748180;80;21741;-82
2022/04/03 06:45:05;;;;;;;8.93;4.85;;;;;;;3.84;49.95;101176.50;1758953;80;21061;-79
2022/04/03 06:47:32;;;;;;;9.23;5.03;;;;;;;3.91;49.90;101175.17;1780471;79;21025;-81
2022/04/03 06:49:59;;;;;;;7.60;4.50;;;;;;;3.95;49.75;101170.22;1764533;80;21211;-84
2022/04/03 06:52:27;;;;;;;9.30;4.65;;;;;;;4.00;49.70;101166.18;1754827;80;21133;-92
2022/04/03 06:54:54;;;;;;;7.62;4.53;;;;;;;4.08;49.72;101170.53;1760268;80;22375;-90
2022/04/03 06:57:34;;;;;;;10.72;4.50;;;;;;;4.17;49.61;101169.76;1761006;81;21038;-87
2022/04/03 07:00:01;;;;;;;8.98;4.87;;;;;;;4.23;49.47;101174.42;1802348;78;21144;-85
2022/04/03 07:02:31;;;;;;;5.47;3.87;;;;;;;4.31;49.41;101174.86;1759926;80;21045;-83
2022/04/03 07:04:57;;;;;;;6.83;3.85;;;;;;;4.40;49.19;101171.06;1732605;81;21022;-87
2022/04/03 07:07:25;;;;;;;8.93;4.47;;;;;;;4.54;49.17;101172.23;1758661;78;21689;-87
2022/04/03 07:09:52;;;;;;;8.18;3.98;;;;;;;4.74;49.09;101178.16;1766809;80;21537;-90
2022/04/03 07:12:21;;;;;;;8.68;4.00;;;;;;;4.95;49.01;101175.82;1722948;82;21852;-92
2022/04/03 07:14:48;;;;;;;5.28;3.35;;;;;;;5.17;48.69;101169.17;1758515;81;21600;-89
2022/04/03 07:17:16;;;;;;;6.58;3.50;;;;;;;5.28;48.25;101168.44;1803351;78;21119;-89
2022/04/03 07:19:43;;;;;;;6.60;3.33;;;;;;;5.36;48.26;101172.34;1809705;78;21764;-89
2022/04/03 07:22:09;;;;;;;8.00;3.72;;;;;;;5.48;48.10;101177.30;1806368;78;21585;-79
2022/04/03 07:24:38;;;;;;;6.25;3.17;;;;;;;5.58;48.08;101175.67;1814362;77;21096;-88
2022/04/03 07:27:05;;;;;;;4.75;2.70;;;;;;;5.75;48.08;101174.82;1800264;77;21091;-78
2022/04/03 07:29:33;;;;;;;5.92;2.90;;;;;;;5.90;47.77;101172.52;1788021;78;21147;-88
2022/04/03 07:32:00;;;;;;;4.55;2.70;;;;;;;5.97;47.51;101174.66;1809866;78;21771;-90
2022/04/03 07:34:27;;;;;;;4.00;2.80;;;;;;;6.08;47.25;101177.78;1806137;77;21715;-81
2022/04/03 07:36:58;;;;;;;6.55;3.00;;;;;;;6.15;47.10;101174.66;1801037;78;21041;-89
2022/04/03 07:39:30;;;;;;;5.40;2.55;;;;;;;6.24;46.87;101173.81;1800955;78;21184;-88
2022/04/03 07:41:57;;;;;;;4.03;2.62;;;;;;;6.23;46.50;101175.92;1813034;78;21065;-89
2022/04/03 07:44:23;;;;;;;6.55;2.65;;;;;;;6.25;46.39;101176.92;1811851;78;21734;-86
2022/04/03 07:46:50;;;;;;;5.28;2.35;;;;;;;6.21;46.30;101174.56;1812655;78;21088;-80
2022/04/03 07:49:17;;;;;;;5.65;2.87;;;;;;;6.30;46.39;101175.41;1801425;78;21068;-87
2022/04/03 07:51:44;;;;;;;4.25;2.70;;;;;;;6.45;46.42;101173.06;1805716;77;21045;-87
2022/04/03 07:54:11;;;;;;;5.22;2.30;;;;;;;6.59;46.07;101176.83;1811530;78;21093;-89
2022/04/03 07:56:37;;;;;;;5.62;2.37;;;;;;;6.55;45.70;101181.83;1807141;78;21740;-79
2022/04/03 07:59:06;;;;;;;4.75;2.52;;;;;;;6.46;45.64;101182.30;1814645;78;21716;-78
2022/04/03 08:01:34;;;;;;;4.05;2.20;;;;;;;6.37;45.78;101177.50;1803860;78;21076;-87
2022/04/03 08:04:02;;;;;;;6.85;3.08;;;;;;;6.35;45.61;101180.46;1809069;78;21048;-89
2022/04/03 08:06:29;;;;;;;3.87;2.22;;;;;;;6.42;45.92;101176.44;1808544;78;21164;-89
2022/04/03 08:08:56;;;;;;;4.03;2.10;;;;;;;6.41;45.47;101185.09;1807918;78;21775;-88
2022/04/03 08:11:23;;;;;;;4.22;2.80;;;;;;;6.36;45.59;101180.96;1796213;78;21071;-87
2022/04/03 08:13:50;;;;;;;8.63;2.95;;;;;;;6.32;45.50;101182.91;1809833;78;21056;-86
2022/04/03 08:16:17;;;;;;;5.75;3.15;;;;;;;6.11;45.41;101173.61;1810340;78;21112;-87
2022/04/03 08:18:43;;;;;;;8.28;4.97;;;;;;;6.00;45.32;101180.90;1818608;78;21841;-87
2022/04/03 08:21:10;;;;;;;12.82;8.95;;;;;;;5.94;45.39;101180.56;1814551;78;22575;-81
2022/04/03 08:23:38;;;;;;;9.63;4.53;;;;;;;5.95;45.29;101171.95;1808007;77;21038;-78
2022/04/03 08:26:09;;;;;;;7.55;4.12;;;;;;;6.09;45.23;101173.05;1803584;78;21119;-86
2022/04/03 08:28:36;;;;;;;7.12;4.20;;;;;;;6.07;45.29;101152.48;1816941;78;21081;-87
2022/04/03 08:31:03;;;;;;;10.13;3.83;;;;;;;6.36;45.32;101168.27;1810891;78;21109;-85
2022/04/03 08:33:30;;;;;;;5.72;3.00;;;;;;;6.66;45.37;101164.92;1814361;78;22934;-85
2022/04/03 08:36:05;;;;;;;4.87;3.37;;;;;;;6.99;45.13;101172.16;1802487;78;21451;-88
2022/04/03 08:38:32;;;;;;;5.15;2.60;;;;;;;7.16;44.41;101166.38;1804056;78;21072;-84
2022/04/03 08:41:01;;;;;;;5.12;1.90;;;;;;;7.31;44.18;101165.29;1803397;78;21076;-77
2022/04/03 08:43:38;;;;;;;3.50;1.95;;;;;;;7.31;42.98;101162.25;1796047;78;21073;-79
2022/04/03 08:46:07;;;;;;;5.12;1.75;;;;;;;7.31;42.67;101164.87;1809151;77;21017;-87
2022/04/03 08:48:34;;;;;;;2.98;1.67;;;;;;;7.34;42.22;101171.98;1796217;78;21068;-89
2022/04/03 08:51:05;;;;;;;4.22;2.00;;;;;;;7.10;41.91;101165.22;1798969;78;21161;-85
2022/04/03 08:53:32;;;;;;;4.78;1.70;;;;;;;6.98;41.99;101161.61;1806440;78;21073;-85
2022/04/03 08:55:59;;;;;;;5.28;1.77;;;;;;;6.93;41.73;101161.83;1815790;78;21068;-75
2022/04/03 08:58:26;;;;;;;1.95;1.40;;;;;;;6.91;41.87;101163.48;1782972;78;22514;-77
2022/04/03 09:00:53;;;;;;;2.70;1.60;;;;;;;6.95;41.54;101170.22;1800478;77;21076;-79
2022/04/03 09:03:19;;;;;;;3.72;1.62;;;;;;;6.90;41.03;101166.91;1810053;78;21096;-79
2022/04/03 09:05:47;;;;;;;4.33;2.05;;;;;;;6.93;41.13;101163.14;1817620;78;21530;-78
2022/04/03 09:08:14;;;;;;;5.42;1.82;;;;;;;6.87;40.90;101163.75;1783089;79;21148;-79
2022/04/03 09:10:44;;;;;;;3.87;1.50;;;;;;;6.84;40.68;101160.09;1846119;77;21820;-80
2022/04/03 09:13:11;;;;;;;4.12;2.10;;;;;;;6.75;40.48;101159.23;1846352;77;21122;-80
2022/04/03 09:15:38;;;;;;;6.05;2.10;;;;;;;6.50;40.63;101158.50;1811152;77;21026;-86
2022/04/03 09:18:06;;;;;;;4.20;1.90;;;;;;;6.41;40.76;101153.30;1804731;75;21089;-88
2022/04/03 09:20:37;;;;;;;3.55;2.00;;;;;;;6.39;40.60;101154.94;1842118;77;21046;-88
2022/04/03 09:23:06;;;;;;;3.92;1.52;;;;;;;6.35;40.37;101150.39;1842713;77;21772;-88
2022/04/03 09:25:41;;;;;;;3.98;1.70;;;;;;;6.31;39.73;101157.61;1835371;77;21543;-88
2022/04/03 09:28:11;;;;;;;5.87;2.05;;;;;;;6.00;39.87;101137.78;1840850;75;21078;-87
2022/04/03 09:30:39;;;;;;;8.75;2.12;;;;;;;5.94;39.72;101145.71;1839519;75;21496;-87
2022/04/03 09:33:07;;;;;;;2.95;1.90;;;;;;;5.80;39.93;101142.00;1815671;77;21021;-87
2022/04/03 09:36:01;;;;;;;5.20;1.95;;;;;;;5.76;39.89;101134.84;1842522;77;21753;-86
2022/04/03 09:38:32;;;;;;;5.33;2.40;;;;;;;5.79;40.17;101133.66;1836244;75;21582;-84
2022/04/03 09:40:59;;;;;;;3.33;1.87;;;;;;;5.92;40.25;101133.88;1850359;75;21058;-88
2022/04/03 09:43:34;;;;;;;4.75;1.92;;;;;;;6.03;39.85;101123.58;1830076;77;21026;-86
2022/04/03 09:46:08;;;;;;;3.40;2.02;;;;;;;6.26;39.73;101118.99;1844790;77;21030;-88
2022/04/03 09:48:41;;;;;;;4.12;2.12;;;;;;;6.59;40.00;101124.52;1832929;77;23033;-87
2022/04/03 09:51:14;;;;;;;3.83;1.90;;;;;;;6.91;39.75;101120.30;1853832;77;21705;-86
2022/04/03 09:53:50;;;;;;;4.87;2.62;;;;;;;7.22;39.50;101121.25;1842929;77;21058;-87
2022/04/03 09:56:31;;;;;;;3.25;2.22;;;;;;;7.39;39.33;101113.75;1846829;77;21023;-86
2022/04/03 09:59:03;;;;;;;3.77;2.62;;;;;;;7.46;39.17;101115.31;1840881;77;21031;-86
2022/04/03 10:01:41;;;;;;;7.40;3.90;;;;;;;7.49;39.06;101113.73;1851275;75;22396;-77
2022/04/03 10:04:10;;;;;;;6.25;2.30;;;;;;;7.47;38.88;101115.78;1851699;75;21051;-77
2022/04/03 10:06:38;;;;;;;4.47;1.80;;;;;;;7.29;38.74;101110.66;1820824;77;21146;-86
2022/04/03 10:09:07;;;;;;;6.25;2.58;;;;;;;6.95;38.27;101099.56;1842559;77;21025;-78
2022/04/03 10:11:33;;;;;;;3.80;2.02;;;;;;;6.72;38.39;101103.76;1855539;77;21026;-92
2022/04/03 10:14:01;;;;;;;3.22;1.90;;;;;;;6.71;38.54;101098.45;1856303;75;21700;-87
2022/04/03 10:16:27;;;;;;;5.03;2.00;;;;;;;6.84;38.80;101094.25;1854382;77;21846;-86
2022/04/03 10:18:54;;;;;;;3.55;1.70;;;;;;;7.10;38.73;101101.09;1850996;75;21082;-79
2022/04/03 10:21:42;;;;;;;4.87;1.82;;;;;;;7.29;38.44;101087.08;1857106;77;21074;-89
2022/04/03 10:24:28;;;;;;;2.25;1.60;;;;;;;7.56;38.49;101093.91;1858233;77;21011;-88
2022/04/03 10:27:15;;;;;;;2.98;1.65;;;;;;;8.02;38.29;101098.47;1861079;77;21774;-90
2022/04/03 10:29:43;;;;;;;2.95;1.77;;;;;;;8.25;37.80;101081.02;1866393;75;21072;-80
2022/04/03 10:32:29;;;;;;;2.85;1.70;;;;;;;8.41;37.37;101078.61;1861961;75;21029;-79
2022/04/03 10:35:06;;;;;;;2.85;1.80;;;;;;;8.40;37.20;101079.42;1832043;77;21531;-90
2022/04/03 10:37:38;;;;;;;2.42;1.42;;;;;;;8.34;36.97;101081.81;1851497;75;21018;-77
2022/04/03 10:40:17;;;;;;;4.35;1.60;;;;;;;8.27;36.92;101085.03;1841249;77;21810;-87
2022/04/03 10:42:58;;;;;;;4.30;1.80;;;;;;;8.07;36.83;101076.35;1857235;77;21026;-82
2022/04/03 10:45:33;;;;;;;4.42;2.40;;;;;;;7.85;36.83;101080.73;1853714;77;21569;-88
2022/04/03 10:48:28;;;;;;;5.92;2.00;;;;;;;7.62;36.71;101078.48;1842862;77;21323;-89
2022/04/03 10:51:08;;;;;;;3.45;1.77;;;;;;;7.40;36.53;101067.49;1815652;77;27068;-81
2022/04/03 10:53:43;;;;;;;4.47;2.08;;;;;;;7.16;36.46;101068.20;1851856;77;21755;-79
2022/04/03 10:56:25;;;;;;;3.98;1.85;;;;;;;7.10;36.56;101073.19;1827104;77;21073;-82
2022/04/03 10:58:54;;;;;;;4.67;2.27;;;;;;;7.14;36.72;101060.70;1853478;75;21497;-83
2022/04/03 11:01:33;;;;;;;3.27;1.67;;;;;;;7.46;36.84;101057.27;1859095;75;21137;-84
2022/04/03 11:04:13;;;;;;;3.45;1.87;;;;;;;7.78;36.82;101059.92;1860851;77;21036;-89
2022/04/03 11:06:41;;;;;;;6.60;3.20;;;;;;;8.16;36.79;101043.95;1839925;77;21765;-89
2022/04/03 11:09:15;;;;;;;4.33;1.70;;;;;;;8.56;36.84;101039.87;1819018;77;21094;-94
2022/04/03 11:11:57;;;;;;;3.02;1.70;;;;;;;8.90;36.31;101037.61;1785091;78;21049;-90
2022/04/03 11:14:57;;;;;;;3.00;1.90;;;;;;;9.07;36.19;101035.16;1776461;78;21069;-88
2022/04/03 11:17:52;;;;;;;5.45;2.05;;;;;;;9.02;35.87;101039.77;1821107;78;21355;-88
2022/04/03 11:20:42;;;;;;;8.38;4.75;;;;;;;8.96;35.92;101033.87;1821738;77;21777;-83
2022/04/03 11:23:17;;;;;;;7.37;4.33;;;;;;;9.06;36.17;101033.78;1795087;78;21071;-82
2022/04/03 11:25:44;;;;;;;8.13;3.72;;;;;;;9.24;36.23;101031.81;1811522;77;21085;-79
2022/04/03 11:28:11;;;;;;;6.83;2.27;;;;;;;9.38;36.06;101038.84;1789795;79;21038;-80
2022/04/03 11:30:37;;;;;;;3.67;1.60;;;;;;;9.46;35.74;101040.41;1785348;78;21120;-80
2022/04/03 11:33:05;;;;;;;3.87;1.85;;;;;;;9.42;35.36;101030.65;1792609;78;21950;-80
2022/04/03 11:35:37;;;;;;;7.33;2.27;;;;;;;9.27;35.36;101025.76;1792313;78;21077;-79
2022/04/03 11:38:04;;;;;;;3.92;2.15;;;;;;;9.30;35.55;101036.38;1819703;78;21104;-80
2022/04/03 11:40:34;;;;;;;3.17;1.98;;;;;;;9.26;35.49;101021.36;1819170;77;21222;-80